sensor_id;sensor_type;location;lat;lon;timestamp;pressure;altitude;pressure_sealevel;temperature;humidity
42945;BME280;28584;42.636;23.294;2023-04-06T00:01:24;158031.84;;;-2.00;100.00
42945;BME280;28584;42.636;23.294;2023-04-06T00:03:50;158034.47;;;-1.99;100.00
42945;BME280;28584;42.636;23.294;2023-04-06T00:06:16;158037.09;;;-1.98;100.00
42945;BME280;28584;42.636;23.294;2023-04-06T00:08:41;158034.47;;;-1.99;100.00
42945;BME280;28584;42.636;23.294;2023-04-06T00:11:07;158033.13;;;-2.00;100.00
42945;BME280;28584;42.636;23.294;2023-04-06T00:13:32;158041.06;;;-1.97;100.00
42945;BME280;28584;42.636;23.294;2023-04-06T00:15:58;158037.09;;;-1.98;100.00
42945;BME280;28584;42.636;23.294;2023-04-06T00:18:23;158046.38;;;-1.95;100.00
42945;BME280;28584;42.636;23.294;2023-04-06T00:20:49;158039.78;;;-1.97;100.00
42945;BME280;28584;42.636;23.294;2023-04-06T00:23:16;158035.81;;;-1.99;100.00
42945;BME280;28584;42.636;23.294;2023-04-06T00:25:41;158038.44;;;-1.98;100.00
42945;BME280;28584;42.636;23.294;2023-04-06T00:28:07;158046.38;;;-1.95;100.00
42945;BME280;28584;42.636;23.294;2023-04-06T00:30:32;158042.41;;;-1.96;100.00
42945;BME280;28584;42.636;23.294;2023-04-06T00:32:57;158042.41;;;-1.96;100.00
42945;BME280;28584;42.636;23.294;2023-04-06T00:35:23;158062.25;;;-1.89;100.00
42945;BME280;28584;42.636;23.294;2023-04-06T00:37:48;158056.94;;;-1.91;100.00
42945;BME280;28584;42.636;23.294;2023-04-06T00:40:14;158043.69;;;-1.96;100.00
42945;BME280;28584;42.636;23.294;2023-04-06T00:42:40;158021.28;;;-2.04;100.00
42945;BME280;28584;42.636;23.294;2023-04-06T00:45:06;158027.88;;;-2.02;100.00
42945;BME280;28584;42.636;23.294;2023-04-06T00:47:32;158030.50;;;-2.01;100.00
42945;BME280;28584;42.636;23.294;2023-04-06T00:49:58;158025.19;;;-2.03;100.00
42945;BME280;28584;42.636;23.294;2023-04-06T00:52:23;158022.56;;;-2.04;100.00
42945;BME280;28584;42.636;23.294;2023-04-06T00:54:50;158015.97;;;-2.06;100.00
42945;BME280;28584;42.636;23.294;2023-04-06T00:57:16;158030.50;;;-2.01;100.00
42945;BME280;28584;42.636;23.294;2023-04-06T00:59:42;158019.94;;;-2.05;100.00
42945;BME280;28584;42.636;23.294;2023-04-06T01:02:08;158014.63;;;-2.07;100.00
42945;BME280;28584;42.636;23.294;2023-04-06T01:04:34;158004.06;;;-2.11;100.00
42945;BME280;28584;42.636;23.294;2023-04-06T01:06:59;158009.38;;;-2.09;100.00
42945;BME280;28584;42.636;23.294;2023-04-06T01:09:27;158000.09;;;-2.12;100.00
42945;BME280;28584;42.636;23.294;2023-04-06T01:11:53;158013.34;;;-2.07;100.00
42945;BME280;28584;42.636;23.294;2023-04-06T01:14:19;158001.44;;;-2.12;100.00
42945;BME280;28584;42.636;23.294;2023-04-06T01:16:44;158000.09;;;-2.12;100.00
42945;BME280;28584;42.636;23.294;2023-04-06T01:19:12;158005.41;;;-2.10;100.00
42945;BME280;28584;42.636;23.294;2023-04-06T01:21:39;157993.50;;;-2.15;100.00
42945;BME280;28584;42.636;23.294;2023-04-06T01:24:05;157996.13;;;-2.14;100.00
42945;BME280;28584;42.636;23.294;2023-04-06T01:26:31;157996.13;;;-2.14;100.00
42945;BME280;28584;42.636;23.294;2023-04-06T01:28:57;158000.09;;;-2.12;100.00
42945;BME280;28584;42.636;23.294;2023-04-06T01:31:24;158006.69;;;-2.10;100.00
42945;BME280;28584;42.636;23.294;2023-04-06T01:33:50;157998.78;;;-2.13;100.00
42945;BME280;28584;42.636;23.294;2023-04-06T01:36:16;157990.84;;;-2.16;100.00
42945;BME280;28584;42.636;23.294;2023-04-06T01:38:41;157993.50;;;-2.15;100.00
42945;BME280;28584;42.636;23.294;2023-04-06T01:41:07;158000.09;;;-2.12;100.00
42945;BME280;28584;42.636;23.294;2023-04-06T01:43:33;158009.38;;;-2.09;100.00
42945;BME280;28584;42.636;23.294;2023-04-06T01:45:58;158013.34;;;-2.07;100.00
42945;BME280;28584;42.636;23.294;2023-04-06T01:48:24;158009.38;;;-2.09;100.00
42945;BME280;28584;42.636;23.294;2023-04-06T01:50:49;158000.09;;;-2.12;100.00
42945;BME280;28584;42.636;23.294;2023-04-06T01:53:14;157994.81;;;-2.14;100.00
42945;BME280;28584;42.636;23.294;2023-04-06T01:55:41;157984.22;;;-2.18;100.00
42945;BME280;28584;42.636;23.294;2023-04-06T01:58:06;157988.19;;;-2.17;100.00
42945;BME280;28584;42.636;23.294;2023-04-06T02:00:32;157992.16;;;-2.15;100.00
42945;BME280;28584;42.636;23.294;2023-04-06T02:02:57;158014.63;;;-2.07;100.00
42945;BME280;28584;42.636;23.294;2023-04-06T02:05:23;158021.28;;;-2.04;100.00
42945;BME280;28584;42.636;23.294;2023-04-06T02:07:48;158029.16;;;-2.01;100.00
42945;BME280;28584;42.636;23.294;2023-04-06T02:10:14;158039.78;;;-1.97;100.00
42945;BME280;28584;42.636;23.294;2023-04-06T02:12:40;158046.38;;;-1.95;100.00
42945;BME280;28584;42.636;23.294;2023-04-06T02:15:05;158062.25;;;-1.89;100.00
42945;BME280;28584;42.636;23.294;2023-04-06T02:17:31;158068.84;;;-1.86;100.00
42945;BME280;28584;42.636;23.294;2023-04-06T02:19:56;158075.44;;;-1.84;100.00
42945;BME280;28584;42.636;23.294;2023-04-06T02:22:22;158086.03;;;-1.80;100.00
42945;BME280;28584;42.636;23.294;2023-04-06T02:24:47;158075.44;;;-1.84;100.00
42945;BME280;28584;42.636;23.294;2023-04-06T02:27:14;158082.06;;;-1.81;100.00
42945;BME280;28584;42.636;23.294;2023-04-06T02:29:39;158072.81;;;-1.85;100.00
42945;BME280;28584;42.636;23.294;2023-04-06T02:32:05;158087.38;;;-1.79;100.00
42945;BME280;28584;42.636;23.294;2023-04-06T02:34:31;158086.03;;;-1.80;100.00
42945;BME280;28584;42.636;23.294;2023-04-06T02:36:56;158075.44;;;-1.84;100.00
42945;BME280;28584;42.636;23.294;2023-04-06T02:39:22;158070.13;;;-1.86;100.00
42945;BME280;28584;42.636;23.294;2023-04-06T02:41:47;158075.44;;;-1.84;100.00
42945;BME280;28584;42.636;23.294;2023-04-06T02:44:13;158074.13;;;-1.84;100.00
42945;BME280;28584;42.636;23.294;2023-04-06T02:46:38;158083.41;;;-1.81;100.00
42945;BME280;28584;42.636;23.294;2023-04-06T02:49:04;158091.34;;;-1.78;100.00
42945;BME280;28584;42.636;23.294;2023-04-06T02:51:29;158097.94;;;-1.75;100.00
42945;BME280;28584;42.636;23.294;2023-04-06T02:53:54;158107.16;;;-1.72;100.00
42945;BME280;28584;42.636;23.294;2023-04-06T02:56:20;158100.56;;;-1.74;100.00
42945;BME280;28584;42.636;23.294;2023-04-06T02:58:47;158097.94;;;-1.75;100.00
42945;BME280;28584;42.636;23.294;2023-04-06T03:01:12;158096.59;;;-1.76;100.00
42945;BME280;28584;42.636;23.294;2023-04-06T03:03:38;158104.53;;;-1.73;100.00
42945;BME280;28584;42.636;23.294;2023-04-06T03:06:03;158107.16;;;-1.72;100.00
42945;BME280;28584;42.636;23.294;2023-04-06T03:08:29;158100.56;;;-1.74;100.00
42945;BME280;28584;42.636;23.294;2023-04-06T03:10:54;158112.47;;;-1.70;100.00
42945;BME280;28584;42.636;23.294;2023-04-06T03:13:20;158097.94;;;-1.75;100.00
42945;BME280;28584;42.636;23.294;2023-04-06T03:15:45;158082.06;;;-1.81;100.00
42945;BME280;28584;42.636;23.294;2023-04-06T03:18:11;158091.34;;;-1.78;100.00
42945;BME280;28584;42.636;23.294;2023-04-06T03:20:36;158080.75;;;-1.82;100.00
42945;BME280;28584;42.636;23.294;2023-04-06T03:23:02;158079.44;;;-1.82;100.00
42945;BME280;28584;42.636;23.294;2023-04-06T03:25:27;158076.78;;;-1.83;100.00
42945;BME280;28584;42.636;23.294;2023-04-06T03:27:52;158063.53;;;-1.88;100.00
42945;BME280;28584;42.636;23.294;2023-04-06T03:30:18;158059.56;;;-1.90;100.00
42945;BME280;28584;42.636;23.294;2023-04-06T03:32:44;158060.91;;;-1.89;100.00
42945;BME280;28584;42.636;23.294;2023-04-06T03:35:10;158054.31;;;-1.92;100.00
42945;BME280;28584;42.636;23.294;2023-04-06T03:37:35;158049.00;;;-1.94;100.00
42945;BME280;28584;42.636;23.294;2023-04-06T03:40:01;158049.00;;;-1.94;100.00
42945;BME280;28584;42.636;23.294;2023-04-06T03:42:26;158056.94;;;-1.91;100.00
42945;BME280;28584;42.636;23.294;2023-04-06T03:44:52;158060.91;;;-1.89;100.00
42945;BME280;28584;42.636;23.294;2023-04-06T03:47:17;158067.50;;;-1.87;100.00
42945;BME280;28584;42.636;23.294;2023-04-06T03:49:43;158064.88;;;-1.88;100.00
42945;BME280;28584;42.636;23.294;2023-04-06T03:52:08;158062.25;;;-1.89;100.00
42945;BME280;28584;42.636;23.294;2023-04-06T03:54:33;158062.25;;;-1.89;100.00
42945;BME280;28584;42.636;23.294;2023-04-06T03:56:59;158067.50;;;-1.87;100.00
42945;BME280;28584;42.636;23.294;2023-04-06T03:59:25;158086.03;;;-1.80;100.00
42945;BME280;28584;42.636;23.294;2023-04-06T04:01:51;158109.84;;;-1.71;100.00
42945;BME280;28584;42.636;23.294;2023-04-06T04:04:16;158120.41;;;-1.67;100.00
42945;BME280;28584;42.636;23.294;2023-04-06T04:06:41;158131.00;;;-1.63;100.00
42945;BME280;28584;42.636;23.294;2023-04-06T04:09:07;158131.00;;;-1.63;100.00
42945;BME280;28584;42.636;23.294;2023-04-06T04:11:32;158150.84;;;-1.55;100.00
42945;BME280;28584;42.636;23.294;2023-04-06T04:13:57;158164.03;;;-1.50;100.00
42945;BME280;28584;42.636;23.294;2023-04-06T04:16:23;158170.66;;;-1.48;100.00
42945;BME280;28584;42.636;23.294;2023-04-06T04:18:48;158189.16;;;-1.41;100.00
42945;BME280;28584;42.636;23.294;2023-04-06T04:21:14;158199.78;;;-1.37;100.00
42945;BME280;28584;42.636;23.294;2023-04-06T04:23:39;158220.94;;;-1.29;100.00
42945;BME280;28584;42.636;23.294;2023-04-06T04:26:04;158234.13;;;-1.24;100.00
42945;BME280;28584;42.636;23.294;2023-04-06T04:28:30;158235.47;;;-1.23;100.00
42945;BME280;28584;42.636;23.294;2023-04-06T04:30:56;158252.66;;;-1.17;100.00
42945;BME280;28584;42.636;23.294;2023-04-06T04:33:21;158246.06;;;-1.19;100.00
42945;BME280;28584;42.636;23.294;2023-04-06T04:35:47;158263.22;;;-1.13;100.00
42945;BME280;28584;42.636;23.294;2023-04-06T04:38:12;158252.66;;;-1.17;100.00
42945;BME280;28584;42.636;23.294;2023-04-06T04:40:37;158257.97;;;-1.15;100.00
42945;BME280;28584;42.636;23.294;2023-04-06T04:43:03;158271.19;;;-1.10;100.00
42945;BME280;28584;42.636;23.294;2023-04-06T04:45:28;158271.19;;;-1.10;100.00
42945;BME280;28584;42.636;23.294;2023-04-06T04:47:54;158292.38;;;-1.02;100.00
42945;BME280;28584;42.636;23.294;2023-04-06T04:50:19;158304.25;;;-0.97;100.00
42945;BME280;28584;42.636;23.294;2023-04-06T04:52:45;158334.69;;;-0.86;100.00
42945;BME280;28584;42.636;23.294;2023-04-06T04:55:10;158362.50;;;-0.75;100.00
42945;BME280;28584;42.636;23.294;2023-04-06T04:57:36;158394.25;;;-0.63;100.00
42945;BME280;28584;42.636;23.294;2023-04-06T05:00:01;158432.66;;;-0.49;100.00
42945;BME280;28584;42.636;23.294;2023-04-06T05:02:27;158496.22;;;-0.25;100.00
42945;BME280;28584;42.636;23.294;2023-04-06T05:04:52;158521.34;;;-0.15;100.00
42945;BME280;28584;42.636;23.294;2023-04-06T05:07:18;158543.88;;;-0.07;100.00
42945;BME280;28584;42.636;23.294;2023-04-06T05:09:45;158512.13;;;-0.19;100.00
42945;BME280;28584;42.636;23.294;2023-04-06T05:12:10;158525.34;;;-0.14;100.00
42945;BME280;28584;42.636;23.294;2023-04-06T05:14:36;158567.72;;;0.03;100.00
42945;BME280;28584;42.636;23.294;2023-04-06T05:17:01;158602.13;;;0.16;100.00
42945;BME280;28584;42.636;23.294;2023-04-06T05:19:27;158705.50;;;0.55;100.00
42945;BME280;28584;42.636;23.294;2023-04-06T05:21:52;158831.38;;;1.02;100.00
42945;BME280;28584;42.636;23.294;2023-04-06T05:24:17;158869.84;;;1.17;100.00
42945;BME280;28584;42.636;23.294;2023-04-06T05:26:43;158818.16;;;0.97;100.00
42945;BME280;28584;42.636;23.294;2023-04-06T05:29:09;158738.63;;;0.67;100.00
42945;BME280;28584;42.636;23.294;2023-04-06T05:31:35;158763.78;;;0.77;100.00
42945;BME280;28584;42.636;23.294;2023-04-06T05:34:00;158717.44;;;0.59;100.00
42945;BME280;28584;42.636;23.294;2023-04-06T05:36:26;158724.03;;;0.62;100.00
42945;BME280;28584;42.636;23.294;2023-04-06T05:38:51;158702.81;;;0.54;100.00
42945;BME280;28584;42.636;23.294;2023-04-06T05:41:18;158766.41;;;0.78;100.00
42945;BME280;28584;42.636;23.294;2023-04-06T05:43:43;158775.72;;;0.81;100.00
42945;BME280;28584;42.636;23.294;2023-04-06T05:46:10;158824.75;;;1.00;100.00
42945;BME280;28584;42.636;23.294;2023-04-06T05:48:35;158867.16;;;1.16;100.00
42945;BME280;28584;42.636;23.294;2023-04-06T05:51:01;158905.63;;;1.30;100.00
42945;BME280;28584;42.636;23.294;2023-04-06T05:53:27;158888.41;;;1.24;100.00
42945;BME280;28584;42.636;23.294;2023-04-06T05:55:54;158897.66;;;1.27;100.00
42945;BME280;28584;42.636;23.294;2023-04-06T05:58:19;158831.38;;;1.02;100.00
42945;BME280;28584;42.636;23.294;2023-04-06T06:00:44;158832.72;;;1.03;100.00
42945;BME280;28584;42.636;23.294;2023-04-06T06:03:11;158806.22;;;0.93;100.00
42945;BME280;28584;42.636;23.294;2023-04-06T06:05:37;158933.47;;;1.41;100.00
42945;BME280;28584;42.636;23.294;2023-04-06T06:08:02;158926.81;;;1.38;100.00
42945;BME280;28584;42.636;23.294;2023-04-06T06:10:27;158893.66;;;1.26;100.00
42945;BME280;28584;42.636;23.294;2023-04-06T06:12:53;158806.22;;;0.93;100.00
42945;BME280;28584;42.636;23.294;2023-04-06T06:15:18;158820.78;;;0.98;100.00
42945;BME280;28584;42.636;23.294;2023-04-06T06:17:44;158812.81;;;0.95;100.00
42945;BME280;28584;42.636;23.294;2023-04-06T06:20:09;158843.31;;;1.07;100.00
42945;BME280;28584;42.636;23.294;2023-04-06T06:22:35;158888.41;;;1.24;100.00
42945;BME280;28584;42.636;23.294;2023-04-06T06:25:01;158867.16;;;1.16;100.00
42945;BME280;28584;42.636;23.294;2023-04-06T06:27:26;158899.00;;;1.28;100.00
42945;BME280;28584;42.636;23.294;2023-04-06T06:29:51;158952.03;;;1.48;100.00
42945;BME280;28584;42.636;23.294;2023-04-06T06:32:17;158966.63;;;1.53;100.00
42945;BME280;28584;42.636;23.294;2023-04-06T06:34:43;159088.63;;;1.99;100.00
42945;BME280;28584;42.636;23.294;2023-04-06T06:37:08;159145.69;;;2.21;100.00
42945;BME280;28584;42.636;23.294;2023-04-06T06:39:34;159267.78;;;2.67;97.13
42945;BME280;28584;42.636;23.294;2023-04-06T06:41:59;159395.25;;;3.15;88.54
42945;BME280;28584;42.636;23.294;2023-04-06T06:44:28;159392.59;;;3.14;80.97
42945;BME280;28584;42.636;23.294;2023-04-06T06:46:53;159265.16;;;2.66;84.14
42945;BME280;28584;42.636;23.294;2023-04-06T06:49:19;159397.88;;;3.16;84.28
42945;BME280;28584;42.636;23.294;2023-04-06T06:51:45;159436.41;;;3.31;81.31
42945;BME280;28584;42.636;23.294;2023-04-06T06:54:11;159642.34;;;4.08;75.67
42945;BME280;28584;42.636;23.294;2023-04-06T06:56:37;159566.59;;;3.80;73.88
42945;BME280;28584;42.636;23.294;2023-04-06T06:59:04;159570.56;;;3.81;72.35
42945;BME280;28584;42.636;23.294;2023-04-06T07:01:30;159566.59;;;3.80;74.69
42945;BME280;28584;42.636;23.294;2023-04-06T07:03:56;159311.56;;;2.83;76.13
42945;BME280;28584;42.636;23.294;2023-04-06T07:06:21;159306.28;;;2.81;82.81
42945;BME280;28584;42.636;23.294;2023-04-06T07:08:46;159466.97;;;3.42;83.08
42945;BME280;28584;42.636;23.294;2023-04-06T07:11:12;159533.38;;;3.67;78.20
42945;BME280;28584;42.636;23.294;2023-04-06T07:13:37;159517.44;;;3.61;75.40
42945;BME280;28584;42.636;23.294;2023-04-06T07:16:03;159565.25;;;3.79;73.61
42945;BME280;28584;42.636;23.294;2023-04-06T07:18:28;159432.44;;;3.29;74.42
42945;BME280;28584;42.636;23.294;2023-04-06T07:20:54;159464.28;;;3.41;77.55
42945;BME280;28584;42.636;23.294;2023-04-06T07:23:19;159429.78;;;3.28;73.19
42945;BME280;28584;42.636;23.294;2023-04-06T07:25:45;159684.84;;;4.24;72.50
42945;BME280;28584;42.636;23.294;2023-04-06T07:28:10;159827.09;;;4.78;70.91
42945;BME280;28584;42.636;23.294;2023-04-06T07:30:37;159613.13;;;3.97;66.95
42945;BME280;28584;42.636;23.294;2023-04-06T07:33:02;159593.16;;;3.90;67.94
42945;BME280;28584;42.636;23.294;2023-04-06T07:35:28;159566.59;;;3.80;68.09
42945;BME280;28584;42.636;23.294;2023-04-06T07:37:55;159509.44;;;3.58;70.54
42945;BME280;28584;42.636;23.294;2023-04-06T07:40:21;159664.94;;;4.17;70.65
42945;BME280;28584;42.636;23.294;2023-04-06T07:42:47;159799.19;;;4.67;68.05
42945;BME280;28584;42.636;23.294;2023-04-06T07:45:12;159849.72;;;4.86;65.83
42945;BME280;28584;42.636;23.294;2023-04-06T07:47:38;159859.03;;;4.90;64.53
42945;BME280;28584;42.636;23.294;2023-04-06T07:50:04;159956.13;;;5.26;62.68
42945;BME280;28584;42.636;23.294;2023-04-06T07:52:29;159820.47;;;4.75;62.94
42945;BME280;28584;42.636;23.294;2023-04-06T07:54:57;159797.84;;;4.67;63.10
42945;BME280;28584;42.636;23.294;2023-04-06T07:57:22;159953.50;;;5.25;61.96
42945;BME280;28584;42.636;23.294;2023-04-06T07:59:48;159843.06;;;4.84;62.19
42945;BME280;28584;42.636;23.294;2023-04-06T08:02:13;159924.19;;;5.14;62.55
42945;BME280;28584;42.636;23.294;2023-04-06T08:04:39;160195.72;;;6.17;60.39
42945;BME280;28584;42.636;23.294;2023-04-06T08:07:04;160246.28;;;6.36;59.95
42945;BME280;28584;42.636;23.294;2023-04-06T08:09:30;160462.09;;;7.17;57.99
42945;BME280;28584;42.636;23.294;2023-04-06T08:11:55;160507.41;;;7.34;55.71
42945;BME280;28584;42.636;23.294;2023-04-06T08:14:20;160654.03;;;7.89;55.09
42945;BME280;28584;42.636;23.294;2023-04-06T08:16:46;160648.66;;;7.87;54.52
42945;BME280;28584;42.636;23.294;2023-04-06T08:19:11;160302.22;;;6.57;54.56
42945;BME280;28584;42.636;23.294;2023-04-06T08:21:37;160364.84;;;6.80;56.31
42945;BME280;28584;42.636;23.294;2023-04-06T08:24:03;160456.75;;;7.15;56.42
42945;BME280;28584;42.636;23.294;2023-04-06T08:26:28;160668.69;;;7.94;54.42
42945;BME280;28584;42.636;23.294;2023-04-06T08:28:54;160440.78;;;7.09;53.20
42945;BME280;28584;42.636;23.294;2023-04-06T08:31:19;160383.50;;;6.87;54.09
42945;BME280;28584;42.636;23.294;2023-04-06T08:33:45;160482.03;;;7.24;54.80
42945;BME280;28584;42.636;23.294;2023-04-06T08:36:12;160579.38;;;7.61;54.17
42945;BME280;28584;42.636;23.294;2023-04-06T08:38:38;160086.53;;;5.75;54.11
42945;BME280;28584;42.636;23.294;2023-04-06T08:41:11;160139.81;;;5.96;56.18
42945;BME280;28584;42.636;23.294;2023-04-06T08:43:47;160010.66;;;5.47;57.56
42945;BME280;28584;42.636;23.294;2023-04-06T08:46:14;159781.88;;;4.61;60.49
42945;BME280;28584;42.636;23.294;2023-04-06T08:48:41;159954.78;;;5.26;59.92
42945;BME280;28584;42.636;23.294;2023-04-06T08:51:08;159735.38;;;4.43;61.16
42945;BME280;28584;42.636;23.294;2023-04-06T08:53:33;159827.09;;;4.78;62.63
42945;BME280;28584;42.636;23.294;2023-04-06T08:55:59;160065.25;;;5.67;60.47
42945;BME280;28584;42.636;23.294;2023-04-06T08:58:28;160090.53;;;5.77;58.04
42945;BME280;28584;42.636;23.294;2023-04-06T09:00:56;160260.97;;;6.41;56.65
42945;BME280;28584;42.636;23.294;2023-04-06T09:03:23;160235.66;;;6.32;55.64
42945;BME280;28584;42.636;23.294;2023-04-06T09:05:49;160225.00;;;6.28;56.23
42945;BME280;28584;42.636;23.294;2023-04-06T09:08:15;160247.66;;;6.36;55.78
42945;BME280;28584;42.636;23.294;2023-04-06T09:10:40;160142.47;;;5.97;56.59
42945;BME280;28584;42.636;23.294;2023-04-06T09:13:07;160014.66;;;5.48;57.72
42945;BME280;28584;42.636;23.294;2023-04-06T09:15:33;160202.38;;;6.19;56.63
42945;BME280;28584;42.636;23.294;2023-04-06T09:17:59;160358.19;;;6.78;56.09
42945;BME280;28584;42.636;23.294;2023-04-06T09:20:25;160190.38;;;6.15;54.91
42945;BME280;28584;42.636;23.294;2023-04-06T09:22:51;160054.59;;;5.63;55.37
42945;BME280;28584;42.636;23.294;2023-04-06T09:25:22;159966.78;;;5.30;57.92
42945;BME280;28584;42.636;23.294;2023-04-06T09:28:02;160041.28;;;5.58;57.64
42945;BME280;28584;42.636;23.294;2023-04-06T09:30:28;160134.47;;;5.94;57.10
42945;BME280;28584;42.636;23.294;2023-04-06T09:32:55;160440.78;;;7.09;55.39
42945;BME280;28584;42.636;23.294;2023-04-06T09:35:22;160324.88;;;6.65;55.51
42945;BME280;28584;42.636;23.294;2023-04-06T09:37:52;160263.63;;;6.42;55.28
42945;BME280;28584;42.636;23.294;2023-04-06T09:40:18;160574.03;;;7.59;54.80
42945;BME280;28584;42.636;23.294;2023-04-06T09:42:48;160651.31;;;7.88;52.41
42945;BME280;28584;42.636;23.294;2023-04-06T09:45:14;160328.84;;;6.67;53.46
42945;BME280;28584;42.636;23.294;2023-04-06T09:47:42;160009.38;;;5.46;55.46
42945;BME280;28584;42.636;23.294;2023-04-06T09:50:10;160174.44;;;6.09;56.03
42945;BME280;28584;42.636;23.294;2023-04-06T09:52:50;159913.56;;;5.10;57.22
42945;BME280;28584;42.636;23.294;2023-04-06T09:55:36;159776.59;;;4.59;60.01
42945;BME280;28584;42.636;23.294;2023-04-06T09:58:23;159949.50;;;5.24;59.17
42945;BME280;28584;42.636;23.294;2023-04-06T10:01:12;159889.63;;;5.01;57.81
42945;BME280;28584;42.636;23.294;2023-04-06T10:03:54;159820.47;;;4.75;58.35
42945;BME280;28584;42.636;23.294;2023-04-06T10:06:23;159775.25;;;4.58;58.90
42945;BME280;28584;42.636;23.294;2023-04-06T10:08:52;159801.84;;;4.68;59.14
42945;BME280;28584;42.636;23.294;2023-04-06T10:11:20;159879.00;;;4.97;58.54
42945;BME280;28584;42.636;23.294;2023-04-06T10:13:47;159788.56;;;4.63;58.14
42945;BME280;28584;42.636;23.294;2023-04-06T10:16:14;159764.63;;;4.54;58.51
42945;BME280;28584;42.636;23.294;2023-04-06T10:18:45;159839.06;;;4.82;59.08
42945;BME280;28584;42.636;23.294;2023-04-06T10:21:13;160066.53;;;5.68;57.93
42945;BME280;28584;42.636;23.294;2023-04-06T10:23:52;159863.03;;;4.91;57.55
42945;BME280;28584;42.636;23.294;2023-04-06T10:26:20;160022.66;;;5.51;58.69
42945;BME280;28584;42.636;23.294;2023-04-06T10:28:47;159902.91;;;5.06;58.21
42945;BME280;28584;42.636;23.294;2023-04-06T10:31:12;159746.00;;;4.47;59.58
42945;BME280;28584;42.636;23.294;2023-04-06T10:33:38;159768.63;;;4.56;60.31
42945;BME280;28584;42.636;23.294;2023-04-06T10:36:12;159727.41;;;4.40;60.51
42945;BME280;28584;42.636;23.294;2023-04-06T10:38:38;159619.75;;;4.00;61.22
42945;BME280;28584;42.636;23.294;2023-04-06T10:41:09;159687.53;;;4.25;62.35
42945;BME280;28584;42.636;23.294;2023-04-06T10:43:36;159645.00;;;4.09;61.22
42945;BME280;28584;42.636;23.294;2023-04-06T10:46:04;159626.38;;;4.02;61.92
42945;BME280;28584;42.636;23.294;2023-04-06T10:48:44;159710.13;;;4.34;62.16
42945;BME280;28584;42.636;23.294;2023-04-06T10:51:16;159714.13;;;4.35;62.74
42945;BME280;28584;42.636;23.294;2023-04-06T10:53:46;159590.53;;;3.89;62.74
42945;BME280;28584;42.636;23.294;2023-04-06T10:56:16;159583.84;;;3.86;64.50
42945;BME280;28584;42.636;23.294;2023-04-06T10:58:49;159748.66;;;4.48;63.81
42945;BME280;28584;42.636;23.294;2023-04-06T11:01:19;159744.66;;;4.47;61.47
42945;BME280;28584;42.636;23.294;2023-04-06T11:03:48;159811.19;;;4.72;61.67
42945;BME280;28584;42.636;23.294;2023-04-06T11:06:20;159777.94;;;4.59;63.23
42945;BME280;28584;42.636;23.294;2023-04-06T11:08:46;159667.59;;;4.18;62.08
42945;BME280;28584;42.636;23.294;2023-04-06T11:11:14;159829.78;;;4.79;62.48
42945;BME280;28584;42.636;23.294;2023-04-06T11:14:01;159769.97;;;4.56;62.22
42945;BME280;28584;42.636;23.294;2023-04-06T11:16:29;159559.97;;;3.77;62.68
42945;BME280;28584;42.636;23.294;2023-04-06T11:19:02;159683.56;;;4.24;63.64
42945;BME280;28584;42.636;23.294;2023-04-06T11:21:40;159575.91;;;3.83;63.48
42945;BME280;28584;42.636;23.294;2023-04-06T11:26:48;159716.78;;;4.36;63.16
42945;BME280;28584;42.636;23.294;2023-04-06T11:29:17;159466.97;;;3.42;64.95
42945;BME280;28584;42.636;23.294;2023-04-06T11:31:50;159505.47;;;3.57;66.10
42945;BME280;28584;42.636;23.294;2023-04-06T11:34:22;159597.16;;;3.91;67.22
42945;BME280;28584;42.636;23.294;2023-04-06T11:36:59;159631.72;;;4.04;66.21
42945;BME280;28584;42.636;23.294;2023-04-06T11:39:26;159579.91;;;3.85;67.63
42945;BME280;28584;42.636;23.294;2023-04-06T11:41:54;159485.56;;;3.49;70.40
42945;BME280;28584;42.636;23.294;2023-04-06T11:44:42;159424.44;;;3.26;75.48
42945;BME280;28584;42.636;23.294;2023-04-06T11:47:11;159493.53;;;3.52;75.47
42945;BME280;28584;42.636;23.294;2023-04-06T11:49:38;159496.19;;;3.53;72.22
42945;BME280;28584;42.636;23.294;2023-04-06T11:54:42;159443.03;;;3.33;69.45
42945;BME280;28584;42.636;23.294;2023-04-06T11:57:08;159461.63;;;3.40;70.87
42945;BME280;28584;42.636;23.294;2023-04-06T11:59:34;159323.53;;;2.88;73.50
42945;BME280;28584;42.636;23.294;2023-04-06T12:02:03;159462.97;;;3.41;73.14
42945;BME280;28584;42.636;23.294;2023-04-06T12:04:29;159482.88;;;3.48;71.17
42945;BME280;28584;42.636;23.294;2023-04-06T12:06:56;159477.59;;;3.46;73.55
42945;BME280;28584;42.636;23.294;2023-04-06T12:09:21;159428.44;;;3.28;74.50
42945;BME280;28584;42.636;23.294;2023-04-06T12:11:47;159522.75;;;3.63;73.24
42945;BME280;28584;42.636;23.294;2023-04-06T12:14:12;159408.50;;;3.20;72.27
42945;BME280;28584;42.636;23.294;2023-04-06T12:16:38;159384.63;;;3.11;74.19
42945;BME280;28584;42.636;23.294;2023-04-06T12:19:03;159400.53;;;3.17;77.25
42945;BME280;28584;42.636;23.294;2023-04-06T12:21:30;159384.63;;;3.11;77.19
42945;BME280;28584;42.636;23.294;2023-04-06T12:23:59;159400.53;;;3.17;74.19
42945;BME280;28584;42.636;23.294;2023-04-06T12:26:24;159488.22;;;3.50;75.25
42945;BME280;28584;42.636;23.294;2023-04-06T12:28:50;159522.75;;;3.63;72.87
42945;BME280;28584;42.636;23.294;2023-04-06T12:31:20;159541.34;;;3.70;72.64
42945;BME280;28584;42.636;23.294;2023-04-06T12:33:47;159459.00;;;3.39;69.92
42945;BME280;28584;42.636;23.294;2023-04-06T12:36:14;159400.53;;;3.17;71.91
42945;BME280;28584;42.636;23.294;2023-04-06T12:38:41;159409.84;;;3.21;72.61
42945;BME280;28584;42.636;23.294;2023-04-06T12:41:07;159383.28;;;3.11;73.51
42945;BME280;28584;42.636;23.294;2023-04-06T12:43:33;159413.84;;;3.22;74.11